ASL25 LATI-LYBE
Flight info
| Callsign | ASL25 |
|---|---|
| Flight time | 0h 48m |
| Altitude | 19000 |
| Route | RINAV M127 ALELU/N0376F180 N146 YUYUH N732 TORTO/N0370F170 P129 ELGEB |
| Aircraft | A20N/M-SDE2E3FGHIRWXY/LB1 |
Departure
| Time | 2026-04-27 21:07 |
|---|---|
| Airport | Tirana International Airport Mother Teresa (LATI) |
Arrival
| Time | 2026-04-27 21:55 |
|---|---|
| Airport | Belgrade Nikola Tesla Airport (LYBE) |
| Time | Latitude | Longitude | Altitude | Speed | Heading |
|---|---|---|---|---|---|
| 2026-04-27 20:38 | 41.42226 | 19.71480 | 121 ft | 0 kts | 267° |
| 2026-04-27 20:59 | 41.42227 | 19.71493 | 127 ft | 4 kts | 270° |
| 2026-04-27 20:59 | 41.42223 | 19.71527 | 124 ft | 4 kts | 300° |
| 2026-04-27 20:59 | 41.42207 | 19.71547 | 116 ft | 2 kts | 354° |
| 2026-04-27 21:00 | 41.42206 | 19.71547 | 116 ft | 0 kts | 354° |
| 2026-04-27 21:01 | 41.42211 | 19.71546 | 118 ft | 0 kts | 354° |
| 2026-04-27 21:01 | 41.42243 | 19.71542 | 121 ft | 11 kts | 354° |
| 2026-04-27 21:02 | 41.42353 | 19.71526 | 117 ft | 19 kts | 353° |
| 2026-04-27 21:02 | 41.42495 | 19.71513 | 116 ft | 22 kts | 357° |
| 2026-04-27 21:02 | 41.42592 | 19.71497 | 117 ft | 19 kts | 349° |
| 2026-04-27 21:02 | 41.42674 | 19.71536 | 118 ft | 6 kts | 87° |
| 2026-04-27 21:03 | 41.42668 | 19.71589 | 118 ft | 7 kts | 87° |
| 2026-04-27 21:03 | 41.42672 | 19.71661 | 118 ft | 0 kts | 86° |
| 2026-04-27 21:06 | 41.42673 | 19.71690 | 118 ft | 8 kts | 86° |
| 2026-04-27 21:06 | 41.42677 | 19.71820 | 119 ft | 21 kts | 98° |
| 2026-04-27 21:07 | 41.42436 | 19.71911 | 117 ft | 75 kts | 173° |
| 2026-04-27 21:07 | 41.41634 | 19.72060 | 134 ft | 151 kts | 170° |
| 2026-04-27 21:07 | 41.40551 | 19.72270 | 801 ft | 157 kts | 171° |
| 2026-04-27 21:07 | 41.39470 | 19.72465 | 1680 ft | 153 kts | 172° |
| 2026-04-27 21:08 | 41.38383 | 19.72644 | 2256 ft | 170 kts | 173° |
| 2026-04-27 21:08 | 41.37063 | 19.72860 | 2743 ft | 205 kts | 172° |
| 2026-04-27 21:08 | 41.35583 | 19.73123 | 3598 ft | 226 kts | 172° |
| 2026-04-27 21:08 | 41.34002 | 19.73407 | 4440 ft | 231 kts | 172° |
| 2026-04-27 21:09 | 41.32395 | 19.73717 | 5294 ft | 235 kts | 171° |
| 2026-04-27 21:09 | 41.30769 | 19.74059 | 6088 ft | 243 kts | 168° |
| 2026-04-27 21:09 | 41.29200 | 19.75078 | 6526 ft | 266 kts | 134° |
| 2026-04-27 21:09 | 41.28312 | 19.77259 | 7157 ft | 277 kts | 99° |
| 2026-04-27 21:10 | 41.28509 | 19.79795 | 7976 ft | 282 kts | 65° |
| 2026-04-27 21:10 | 41.29731 | 19.81801 | 8834 ft | 285 kts | 33° |
| 2026-04-27 21:10 | 41.31592 | 19.82694 | 9700 ft | 289 kts | 5° |
| 2026-04-27 21:10 | 41.33595 | 19.82455 | 10402 ft | 298 kts | 345° |
| 2026-04-27 21:11 | 41.35655 | 19.81600 | 10645 ft | 322 kts | 341° |
| 2026-04-27 21:11 | 41.37865 | 19.80646 | 10857 ft | 345 kts | 341° |
| 2026-04-27 21:11 | 41.40200 | 19.79637 | 11290 ft | 359 kts | 342° |
| 2026-04-27 21:11 | 41.42593 | 19.78604 | 11991 ft | 363 kts | 341° |
| 2026-04-27 21:12 | 41.45006 | 19.77560 | 12721 ft | 367 kts | 341° |
| 2026-04-27 21:12 | 41.47445 | 19.76503 | 13463 ft | 370 kts | 341° |
| 2026-04-27 21:12 | 41.49902 | 19.75439 | 14179 ft | 373 kts | 341° |
| 2026-04-27 21:12 | 41.52386 | 19.74365 | 14843 ft | 376 kts | 341° |
| 2026-04-27 21:13 | 41.54880 | 19.73285 | 15507 ft | 378 kts | 341° |
| 2026-04-27 21:13 | 41.57394 | 19.72195 | 16158 ft | 381 kts | 341° |
| 2026-04-27 21:13 | 41.59927 | 19.71099 | 16847 ft | 384 kts | 341° |
| 2026-04-27 21:13 | 41.62493 | 19.70085 | 17527 ft | 387 kts | 347° |
| 2026-04-27 21:14 | 41.65185 | 19.69626 | 18015 ft | 397 kts | 357° |
| 2026-04-27 21:14 | 41.68005 | 19.69860 | 18149 ft | 415 kts | 7° |
| 2026-04-27 21:14 | 41.70866 | 19.70709 | 18309 ft | 428 kts | 12° |
| 2026-04-27 21:14 | 41.73792 | 19.71640 | 18619 ft | 434 kts | 11° |
| 2026-04-27 21:15 | 41.76752 | 19.72525 | 18975 ft | 437 kts | 11° |
| 2026-04-27 21:15 | 41.79767 | 19.73396 | 19080 ft | 437 kts | 10° |
| 2026-04-27 21:15 | 41.82739 | 19.74243 | 19102 ft | 437 kts | 10° |
| 2026-04-27 21:15 | 41.85709 | 19.75094 | 19098 ft | 437 kts | 10° |
| 2026-04-27 21:16 | 41.88676 | 19.75956 | 19098 ft | 437 kts | 11° |
| 2026-04-27 21:16 | 41.91646 | 19.76830 | 19104 ft | 437 kts | 11° |
| 2026-04-27 21:16 | 41.94610 | 19.77710 | 19104 ft | 437 kts | 11° |
| 2026-04-27 21:16 | 41.97583 | 19.78588 | 19108 ft | 437 kts | 9° |
| 2026-04-27 21:17 | 42.00586 | 19.79117 | 19112 ft | 435 kts | 4° |
| 2026-04-27 21:17 | 42.03602 | 19.79494 | 19112 ft | 435 kts | 4° |
| 2026-04-27 21:17 | 42.06619 | 19.79868 | 19117 ft | 435 kts | 4° |
| 2026-04-27 21:17 | 42.09632 | 19.80244 | 19108 ft | 435 kts | 4° |
| 2026-04-27 21:18 | 42.12647 | 19.80623 | 19115 ft | 435 kts | 4° |
| 2026-04-27 21:18 | 42.15661 | 19.81002 | 19111 ft | 435 kts | 4° |
| 2026-04-27 21:18 | 42.18671 | 19.81379 | 19107 ft | 434 kts | 4° |
| 2026-04-27 21:18 | 42.21680 | 19.81755 | 19110 ft | 434 kts | 4° |
| 2026-04-27 21:19 | 42.24691 | 19.82130 | 19108 ft | 435 kts | 4° |
| 2026-04-27 21:19 | 42.27707 | 19.82507 | 19107 ft | 435 kts | 4° |
| 2026-04-27 21:19 | 42.30719 | 19.82886 | 19112 ft | 435 kts | 4° |
| 2026-04-27 21:20 | 42.36746 | 19.83648 | 19114 ft | 435 kts | 4° |
| 2026-04-27 21:20 | 42.39763 | 19.84031 | 19124 ft | 435 kts | 4° |
| 2026-04-27 21:20 | 42.42778 | 19.84414 | 19125 ft | 435 kts | 4° |
| 2026-04-27 21:20 | 42.45797 | 19.84776 | 19126 ft | 435 kts | 2° |
| 2026-04-27 21:21 | 42.48814 | 19.84689 | 19124 ft | 433 kts | 353° |
| 2026-04-27 21:21 | 42.51782 | 19.83999 | 19132 ft | 433 kts | 347° |
| 2026-04-27 21:21 | 42.54731 | 19.83174 | 19134 ft | 433 kts | 347° |
| 2026-04-27 21:21 | 42.57677 | 19.82354 | 19134 ft | 432 kts | 347° |
| 2026-04-27 21:22 | 42.60627 | 19.81537 | 19140 ft | 432 kts | 347° |
| 2026-04-27 21:22 | 42.63570 | 19.80722 | 19135 ft | 432 kts | 347° |
| 2026-04-27 21:22 | 42.66519 | 19.79906 | 19135 ft | 432 kts | 347° |
| 2026-04-27 21:22 | 42.69468 | 19.79091 | 19136 ft | 432 kts | 347° |
| 2026-04-27 21:23 | 42.72412 | 19.78276 | 19138 ft | 432 kts | 348° |
| 2026-04-27 21:23 | 42.75394 | 19.77451 | 19134 ft | 432 kts | 347° |
| 2026-04-27 21:23 | 42.78336 | 19.76634 | 19132 ft | 432 kts | 347° |
| 2026-04-27 21:23 | 42.81284 | 19.75812 | 19132 ft | 432 kts | 347° |
| 2026-04-27 21:24 | 42.84229 | 19.74988 | 19135 ft | 432 kts | 347° |
| 2026-04-27 21:24 | 42.87172 | 19.74166 | 19136 ft | 432 kts | 347° |
| 2026-04-27 21:24 | 42.90118 | 19.73345 | 19134 ft | 432 kts | 347° |
| 2026-04-27 21:24 | 42.93069 | 19.72524 | 19133 ft | 433 kts | 348° |
| 2026-04-27 21:25 | 42.96020 | 19.71702 | 19133 ft | 433 kts | 348° |
| 2026-04-27 21:25 | 42.98969 | 19.70882 | 19137 ft | 433 kts | 347° |
| 2026-04-27 21:25 | 43.01924 | 19.70057 | 19134 ft | 433 kts | 347° |
| 2026-04-27 21:25 | 43.04870 | 19.69226 | 19133 ft | 433 kts | 347° |
| 2026-04-27 21:26 | 43.07821 | 19.68392 | 19133 ft | 433 kts | 347° |
| 2026-04-27 21:26 | 43.10770 | 19.67563 | 19138 ft | 433 kts | 347° |
| 2026-04-27 21:26 | 43.13727 | 19.66734 | 19135 ft | 433 kts | 347° |
| 2026-04-27 21:26 | 43.16683 | 19.65904 | 19137 ft | 434 kts | 347° |
| 2026-04-27 21:27 | 43.19637 | 19.65070 | 19139 ft | 434 kts | 347° |
| 2026-04-27 21:27 | 43.22612 | 19.64373 | 19138 ft | 435 kts | 353° |
| 2026-04-27 21:27 | 43.25638 | 19.64302 | 19140 ft | 436 kts | 2° |
| 2026-04-27 21:27 | 43.28644 | 19.64844 | 19144 ft | 437 kts | 8° |
| 2026-04-27 21:28 | 43.31646 | 19.65494 | 19143 ft | 437 kts | 7° |
| 2026-04-27 21:28 | 43.34657 | 19.66133 | 19147 ft | 437 kts | 7° |
| 2026-04-27 21:28 | 43.37664 | 19.66769 | 19147 ft | 437 kts | 7° |
| 2026-04-27 21:28 | 43.40668 | 19.67412 | 19148 ft | 437 kts | 7° |
| 2026-04-27 21:29 | 43.43678 | 19.68065 | 19150 ft | 437 kts | 7° |
| 2026-04-27 21:29 | 43.46685 | 19.68719 | 19153 ft | 437 kts | 7° |
| 2026-04-27 21:29 | 43.49714 | 19.69495 | 19148 ft | 438 kts | 14° |
| 2026-04-27 21:29 | 43.52522 | 19.71151 | 19155 ft | 441 kts | 27° |
| 2026-04-27 21:30 | 43.55206 | 19.73200 | 19155 ft | 441 kts | 27° |
| 2026-04-27 21:30 | 43.57888 | 19.75270 | 19156 ft | 441 kts | 27° |
| 2026-04-27 21:30 | 43.60559 | 19.77345 | 19158 ft | 441 kts | 27° |
| 2026-04-27 21:30 | 43.63228 | 19.79427 | 19153 ft | 441 kts | 27° |
| 2026-04-27 21:31 | 43.65901 | 19.81512 | 19141 ft | 440 kts | 27° |
| 2026-04-27 21:31 | 43.68529 | 19.83562 | 18728 ft | 426 kts | 27° |
| 2026-04-27 21:31 | 43.71117 | 19.85578 | 17490 ft | 429 kts | 27° |
| 2026-04-27 21:31 | 43.73719 | 19.87597 | 16482 ft | 427 kts | 27° |
| 2026-04-27 21:32 | 43.76294 | 19.89598 | 15599 ft | 422 kts | 27° |
| 2026-04-27 21:32 | 43.78834 | 19.91576 | 14810 ft | 418 kts | 27° |
| 2026-04-27 21:32 | 43.81357 | 19.93545 | 14052 ft | 414 kts | 27° |
| 2026-04-27 21:32 | 43.83855 | 19.95494 | 13260 ft | 410 kts | 27° |
| 2026-04-27 21:33 | 43.86326 | 19.97421 | 12524 ft | 405 kts | 27° |
| 2026-04-27 21:33 | 43.88769 | 19.99330 | 11781 ft | 401 kts | 27° |
| 2026-04-27 21:33 | 43.91186 | 20.01220 | 11055 ft | 397 kts | 27° |
| 2026-04-27 21:33 | 43.93573 | 20.03089 | 10315 ft | 392 kts | 27° |
| 2026-04-27 21:34 | 43.95139 | 20.04318 | 9808 ft | 390 kts | 27° |
| 2026-04-27 21:34 | 43.97489 | 20.06164 | 8990 ft | 385 kts | 27° |
| 2026-04-27 21:34 | 44.00602 | 20.08546 | 7883 ft | 379 kts | 22° |
| 2026-04-27 21:34 | 44.02276 | 20.09330 | 7390 ft | 374 kts | 11° |
| 2026-04-27 21:35 | 44.04849 | 20.09730 | 7094 ft | 374 kts | 3° |
| 2026-04-27 21:35 | 44.07451 | 20.10022 | 6969 ft | 374 kts | 3° |
| 2026-04-27 21:35 | 44.10051 | 20.10323 | 6994 ft | 375 kts | 3° |
| 2026-04-27 21:35 | 44.12651 | 20.10622 | 6996 ft | 375 kts | 3° |
| 2026-04-27 21:36 | 44.15256 | 20.10915 | 6992 ft | 375 kts | 3° |
| 2026-04-27 21:36 | 44.17861 | 20.11205 | 6995 ft | 375 kts | 3° |
| 2026-04-27 21:36 | 44.20464 | 20.11492 | 6993 ft | 375 kts | 3° |
| 2026-04-27 21:36 | 44.23063 | 20.11778 | 6995 ft | 375 kts | 3° |
| 2026-04-27 21:37 | 44.25627 | 20.12062 | 6985 ft | 359 kts | 3° |
| 2026-04-27 21:37 | 44.28035 | 20.12334 | 6993 ft | 335 kts | 3° |
| 2026-04-27 21:37 | 44.30285 | 20.12589 | 6992 ft | 314 kts | 3° |
| 2026-04-27 21:37 | 44.32427 | 20.12595 | 6936 ft | 296 kts | 349° |
| 2026-04-27 21:38 | 44.34361 | 20.11949 | 6815 ft | 284 kts | 344° |
| 2026-04-27 21:38 | 44.36262 | 20.11254 | 6692 ft | 273 kts | 344° |
| 2026-04-27 21:38 | 44.38065 | 20.10589 | 6558 ft | 264 kts | 343° |
| 2026-04-27 21:38 | 44.39832 | 20.09933 | 6294 ft | 261 kts | 343° |
| 2026-04-27 21:39 | 44.41586 | 20.09279 | 5956 ft | 261 kts | 344° |
| 2026-04-27 21:39 | 44.43336 | 20.08626 | 5626 ft | 261 kts | 344° |
| 2026-04-27 21:39 | 44.45091 | 20.07975 | 5296 ft | 261 kts | 344° |
| 2026-04-27 21:39 | 44.46736 | 20.07364 | 5044 ft | 259 kts | 344° |
| 2026-04-27 21:40 | 44.48484 | 20.06716 | 4993 ft | 261 kts | 344° |
| 2026-04-27 21:40 | 44.50150 | 20.06099 | 4996 ft | 262 kts | 344° |
| 2026-04-27 21:41 | 44.51267 | 20.05686 | 4993 ft | 262 kts | 344° |
| 2026-04-27 21:41 | 44.52996 | 20.05046 | 4993 ft | 251 kts | 344° |
| 2026-04-27 21:41 | 44.54635 | 20.04434 | 4994 ft | 238 kts | 344° |
| 2026-04-27 21:41 | 44.56212 | 20.03747 | 4996 ft | 237 kts | 339° |
| 2026-04-27 21:42 | 44.57743 | 20.02933 | 4995 ft | 231 kts | 338° |
| 2026-04-27 21:42 | 44.59205 | 20.02121 | 4890 ft | 221 kts | 337° |
| 2026-04-27 21:42 | 44.60604 | 20.01332 | 4744 ft | 212 kts | 337° |
| 2026-04-27 21:42 | 44.61951 | 20.00570 | 4544 ft | 207 kts | 337° |
| 2026-04-27 21:43 | 44.63280 | 19.99817 | 4258 ft | 206 kts | 337° |
| 2026-04-27 21:43 | 44.64599 | 19.99073 | 4026 ft | 203 kts | 338° |
| 2026-04-27 21:43 | 44.65916 | 19.98332 | 3994 ft | 204 kts | 338° |
| 2026-04-27 21:43 | 44.67232 | 19.97593 | 3743 ft | 204 kts | 338° |
| 2026-04-27 21:44 | 44.68610 | 19.97216 | 3438 ft | 203 kts | 2° |
| 2026-04-27 21:44 | 44.70020 | 19.97340 | 3135 ft | 203 kts | 4° |
| 2026-04-27 21:44 | 44.71420 | 19.97467 | 3000 ft | 202 kts | 4° |
| 2026-04-27 21:44 | 44.72826 | 19.97592 | 3005 ft | 203 kts | 4° |
| 2026-04-27 21:45 | 44.74240 | 19.97715 | 3004 ft | 204 kts | 4° |
| 2026-04-27 21:45 | 44.75657 | 19.97839 | 3006 ft | 204 kts | 4° |
| 2026-04-27 21:45 | 44.77072 | 19.97964 | 3010 ft | 204 kts | 4° |
| 2026-04-27 21:45 | 44.78457 | 19.98088 | 3034 ft | 191 kts | 4° |
| 2026-04-27 21:46 | 44.79726 | 19.98202 | 3012 ft | 176 kts | 4° |
| 2026-04-27 21:46 | 44.80943 | 19.98311 | 2999 ft | 171 kts | 4° |
| 2026-04-27 21:46 | 44.82118 | 19.98415 | 3000 ft | 165 kts | 4° |
| 2026-04-27 21:46 | 44.83203 | 19.98511 | 3003 ft | 152 kts | 4° |
| 2026-04-27 21:47 | 44.84238 | 19.98605 | 3006 ft | 147 kts | 4° |
| 2026-04-27 21:47 | 44.85253 | 19.98694 | 3005 ft | 145 kts | 4° |
| 2026-04-27 21:47 | 44.86261 | 19.98783 | 3005 ft | 145 kts | 4° |
| 2026-04-27 21:47 | 44.87265 | 19.98873 | 2997 ft | 145 kts | 4° |
| 2026-04-27 21:48 | 44.88267 | 19.98964 | 3011 ft | 144 kts | 4° |
| 2026-04-27 21:48 | 44.89271 | 19.99054 | 3006 ft | 144 kts | 4° |
| 2026-04-27 21:48 | 44.90274 | 19.99143 | 3011 ft | 145 kts | 4° |
| 2026-04-27 21:48 | 44.91278 | 19.99235 | 3004 ft | 144 kts | 4° |
| 2026-04-27 21:49 | 44.92256 | 19.99519 | 3000 ft | 144 kts | 23° |
| 2026-04-27 21:49 | 44.93079 | 20.00316 | 3012 ft | 144 kts | 46° |
| 2026-04-27 21:49 | 44.93615 | 20.01502 | 3012 ft | 144 kts | 69° |
| 2026-04-27 21:49 | 44.93785 | 20.02890 | 3015 ft | 144 kts | 91° |
| 2026-04-27 21:50 | 44.93468 | 20.04205 | 3021 ft | 144 kts | 122° |
| 2026-04-27 21:50 | 44.92982 | 20.05448 | 3011 ft | 145 kts | 118° |
| 2026-04-27 21:50 | 44.92490 | 20.06686 | 3001 ft | 145 kts | 120° |
| 2026-04-27 21:50 | 44.91976 | 20.07910 | 3007 ft | 145 kts | 121° |
| 2026-04-27 21:51 | 44.91453 | 20.09124 | 3002 ft | 145 kts | 121° |
| 2026-04-27 21:51 | 44.90924 | 20.10337 | 3007 ft | 145 kts | 121° |
| 2026-04-27 21:51 | 44.90394 | 20.11549 | 3007 ft | 145 kts | 122° |
| 2026-04-27 21:51 | 44.89861 | 20.12762 | 2953 ft | 146 kts | 122° |
| 2026-04-27 21:52 | 44.89328 | 20.13972 | 2810 ft | 145 kts | 122° |
| 2026-04-27 21:52 | 44.88795 | 20.15171 | 2657 ft | 144 kts | 122° |
| 2026-04-27 21:52 | 44.88258 | 20.16357 | 2469 ft | 143 kts | 122° |
| 2026-04-27 21:52 | 44.87713 | 20.17544 | 2281 ft | 145 kts | 123° |
| 2026-04-27 21:53 | 44.87161 | 20.18738 | 2126 ft | 145 kts | 122° |
| 2026-04-27 21:53 | 44.86624 | 20.19931 | 1977 ft | 144 kts | 122° |
| 2026-04-27 21:53 | 44.86089 | 20.21127 | 1826 ft | 144 kts | 122° |
| 2026-04-27 21:53 | 44.85525 | 20.22307 | 1661 ft | 144 kts | 124° |
| 2026-04-27 21:54 | 44.84960 | 20.23459 | 1446 ft | 146 kts | 123° |
| 2026-04-27 21:54 | 44.84406 | 20.24663 | 1230 ft | 143 kts | 121° |
| 2026-04-27 21:54 | 44.83892 | 20.25852 | 998 ft | 141 kts | 120° |
| 2026-04-27 21:54 | 44.83421 | 20.27048 | 784 ft | 138 kts | 117° |
| 2026-04-27 21:55 | 44.82981 | 20.28244 | 561 ft | 135 kts | 126° |
| 2026-04-27 21:55 | 44.82527 | 20.29362 | 365 ft | 129 kts | 121° |
| 2026-04-27 21:55 | 44.82133 | 20.30238 | 327 ft | 68 kts | 122° |
| 2026-04-27 21:55 | 44.81988 | 20.30571 | 332 ft | 37 kts | 121° |
| 2026-04-27 21:56 | 44.81856 | 20.30891 | 333 ft | 38 kts | 120° |
| 2026-04-27 21:56 | 44.81512 | 20.31190 | 337 ft | 28 kts | 218° |
| 2026-04-27 21:56 | 44.81476 | 20.31013 | 335 ft | 11 kts | 314° |
| 2026-04-27 21:57 | 44.81540 | 20.30926 | 335 ft | 14 kts | 312° |
| 2026-04-27 21:57 | 44.81584 | 20.30810 | 334 ft | 14 kts | 294° |
| 2026-04-27 21:57 | 44.81633 | 20.30667 | 331 ft | 18 kts | 299° |
| 2026-04-27 21:57 | 44.81710 | 20.30504 | 333 ft | 22 kts | 304° |
| 2026-04-27 21:58 | 44.81803 | 20.30311 | 331 ft | 26 kts | 304° |
| 2026-04-27 21:58 | 44.81906 | 20.30085 | 329 ft | 29 kts | 302° |
| 2026-04-27 21:58 | 44.82020 | 20.29830 | 330 ft | 32 kts | 302° |
| 2026-04-27 21:58 | 44.82071 | 20.29626 | 327 ft | 9 kts | 220° |
| 2026-04-27 21:59 | 44.81978 | 20.29532 | 329 ft | 19 kts | 210° |
| 2026-04-27 21:59 | 44.81949 | 20.29415 | 330 ft | 15 kts | 270° |
| 2026-04-27 21:59 | 44.81973 | 20.29323 | 327 ft | 6 kts | 296° |
| 2026-04-27 21:59 | 44.81976 | 20.29315 | 326 ft | 0 kts | 298° |